sensor_id;sensor_type;location;lat;lon;timestamp;temperature;humidity
52765;DHT22;38650;44.536;18.664;2024-02-23T00:02:20;12.10;48.90
52765;DHT22;38650;44.536;18.664;2024-02-23T00:04:45;12.10;48.70
52765;DHT22;38650;44.536;18.664;2024-02-23T00:07:11;12.10;48.80
52765;DHT22;38650;44.536;18.664;2024-02-23T00:09:37;12.00;49.30
52765;DHT22;38650;44.536;18.664;2024-02-23T00:12:03;11.80;50.70
52765;DHT22;38650;44.536;18.664;2024-02-23T00:14:30;11.90;50.80
52765;DHT22;38650;44.536;18.664;2024-02-23T00:17:01;11.80;50.10
52765;DHT22;38650;44.536;18.664;2024-02-23T00:19:27;11.90;50.10
52765;DHT22;38650;44.536;18.664;2024-02-23T00:21:52;11.90;49.50
52765;DHT22;38650;44.536;18.664;2024-02-23T00:24:18;11.90;50.00
52765;DHT22;38650;44.536;18.664;2024-02-23T00:26:46;11.90;49.80
52765;DHT22;38650;44.536;18.664;2024-02-23T00:29:12;12.00;49.10
52765;DHT22;38650;44.536;18.664;2024-02-23T00:31:38;12.00;49.10
52765;DHT22;38650;44.536;18.664;2024-02-23T00:34:07;12.00;49.40
52765;DHT22;38650;44.536;18.664;2024-02-23T00:36:38;12.00;49.50
52765;DHT22;38650;44.536;18.664;2024-02-23T00:39:03;12.00;50.10
52765;DHT22;38650;44.536;18.664;2024-02-23T00:41:29;12.00;50.80
52765;DHT22;38650;44.536;18.664;2024-02-23T00:43:55;11.90;49.90
52765;DHT22;38650;44.536;18.664;2024-02-23T00:46:20;11.80;50.70
52765;DHT22;38650;44.536;18.664;2024-02-23T00:48:46;11.80;50.50
52765;DHT22;38650;44.536;18.664;2024-02-23T00:51:12;11.80;50.40
52765;DHT22;38650;44.536;18.664;2024-02-23T00:53:38;11.90;50.90
52765;DHT22;38650;44.536;18.664;2024-02-23T00:56:04;11.90;50.50
52765;DHT22;38650;44.536;18.664;2024-02-23T00:58:30;11.90;50.10
52765;DHT22;38650;44.536;18.664;2024-02-23T01:00:55;12.00;50.30
52765;DHT22;38650;44.536;18.664;2024-02-23T01:03:21;11.90;50.40
52765;DHT22;38650;44.536;18.664;2024-02-23T01:05:47;11.90;50.70
52765;DHT22;38650;44.536;18.664;2024-02-23T01:08:14;11.80;50.60
52765;DHT22;38650;44.536;18.664;2024-02-23T01:10:39;11.70;51.50
52765;DHT22;38650;44.536;18.664;2024-02-23T01:13:05;11.60;52.30
52765;DHT22;38650;44.536;18.664;2024-02-23T01:15:31;11.70;51.90
52765;DHT22;38650;44.536;18.664;2024-02-23T01:17:56;11.70;52.80
52765;DHT22;38650;44.536;18.664;2024-02-23T01:20:22;11.50;52.20
52765;DHT22;38650;44.536;18.664;2024-02-23T01:22:48;11.40;52.60
52765;DHT22;38650;44.536;18.664;2024-02-23T01:25:13;11.50;54.20
52765;DHT22;38650;44.536;18.664;2024-02-23T01:27:41;11.50;54.30
52765;DHT22;38650;44.536;18.664;2024-02-23T01:30:07;11.50;53.10
52765;DHT22;38650;44.536;18.664;2024-02-23T01:32:33;11.50;54.00
52765;DHT22;38650;44.536;18.664;2024-02-23T01:34:59;11.50;53.60
52765;DHT22;38650;44.536;18.664;2024-02-23T01:37:24;11.60;53.50
52765;DHT22;38650;44.536;18.664;2024-02-23T01:39:50;11.60;53.40
52765;DHT22;38650;44.536;18.664;2024-02-23T01:42:16;11.60;53.70
52765;DHT22;38650;44.536;18.664;2024-02-23T01:44:42;11.60;54.20
52765;DHT22;38650;44.536;18.664;2024-02-23T01:47:08;11.70;55.00
52765;DHT22;38650;44.536;18.664;2024-02-23T01:49:34;11.80;54.10
52765;DHT22;38650;44.536;18.664;2024-02-23T01:52:02;11.80;55.20
52765;DHT22;38650;44.536;18.664;2024-02-23T01:54:29;11.80;54.60
52765;DHT22;38650;44.536;18.664;2024-02-23T01:56:56;11.60;55.40
52765;DHT22;38650;44.536;18.664;2024-02-23T01:59:23;11.70;56.90
52765;DHT22;38650;44.536;18.664;2024-02-23T02:01:50;11.70;59.20
52765;DHT22;38650;44.536;18.664;2024-02-23T02:04:16;11.80;57.40
52765;DHT22;38650;44.536;18.664;2024-02-23T02:06:42;11.80;55.10
52765;DHT22;38650;44.536;18.664;2024-02-23T02:09:08;11.80;56.40
52765;DHT22;38650;44.536;18.664;2024-02-23T02:11:34;11.80;56.50
52765;DHT22;38650;44.536;18.664;2024-02-23T02:13:59;11.70;59.20
52765;DHT22;38650;44.536;18.664;2024-02-23T02:16:25;11.70;57.80
52765;DHT22;38650;44.536;18.664;2024-02-23T02:18:51;11.80;56.80
52765;DHT22;38650;44.536;18.664;2024-02-23T02:21:16;11.60;57.80
52765;DHT22;38650;44.536;18.664;2024-02-23T02:23:42;11.60;57.60
52765;DHT22;38650;44.536;18.664;2024-02-23T02:26:08;11.70;57.90
52765;DHT22;38650;44.536;18.664;2024-02-23T02:28:33;11.80;57.40
52765;DHT22;38650;44.536;18.664;2024-02-23T02:30:59;11.80;56.60
52765;DHT22;38650;44.536;18.664;2024-02-23T02:33:25;11.90;56.90
52765;DHT22;38650;44.536;18.664;2024-02-23T02:35:51;11.80;56.80
52765;DHT22;38650;44.536;18.664;2024-02-23T02:38:16;11.70;57.70
52765;DHT22;38650;44.536;18.664;2024-02-23T02:40:42;11.70;58.20
52765;DHT22;38650;44.536;18.664;2024-02-23T02:43:08;11.80;57.30
52765;DHT22;38650;44.536;18.664;2024-02-23T02:45:34;11.80;57.80
52765;DHT22;38650;44.536;18.664;2024-02-23T02:48:03;11.90;58.20
52765;DHT22;38650;44.536;18.664;2024-02-23T02:50:28;11.90;58.00
52765;DHT22;38650;44.536;18.664;2024-02-23T02:52:54;11.80;58.40
52765;DHT22;38650;44.536;18.664;2024-02-23T02:55:20;11.80;58.80
52765;DHT22;38650;44.536;18.664;2024-02-23T02:57:46;11.90;61.70
52765;DHT22;38650;44.536;18.664;2024-02-23T03:00:12;11.90;63.00
52765;DHT22;38650;44.536;18.664;2024-02-23T03:02:38;12.00;64.10
52765;DHT22;38650;44.536;18.664;2024-02-23T03:05:03;12.00;60.50
52765;DHT22;38650;44.536;18.664;2024-02-23T03:07:29;12.00;66.50
52765;DHT22;38650;44.536;18.664;2024-02-23T03:09:55;12.10;63.60
52765;DHT22;38650;44.536;18.664;2024-02-23T03:12:21;12.20;60.20
52765;DHT22;38650;44.536;18.664;2024-02-23T03:14:47;12.20;58.20
52765;DHT22;38650;44.536;18.664;2024-02-23T03:17:12;12.30;58.90
52765;DHT22;38650;44.536;18.664;2024-02-23T03:19:38;12.40;55.30
52765;DHT22;38650;44.536;18.664;2024-02-23T03:22:04;12.60;52.60
52765;DHT22;38650;44.536;18.664;2024-02-23T03:24:30;12.90;51.70
52765;DHT22;38650;44.536;18.664;2024-02-23T03:26:56;13.00;51.80
52765;DHT22;38650;44.536;18.664;2024-02-23T03:29:22;13.20;51.50
52765;DHT22;38650;44.536;18.664;2024-02-23T03:31:55;13.30;50.50
52765;DHT22;38650;44.536;18.664;2024-02-23T03:34:20;13.40;49.50
52765;DHT22;38650;44.536;18.664;2024-02-23T03:36:46;13.40;49.80
52765;DHT22;38650;44.536;18.664;2024-02-23T03:39:13;13.50;49.40
52765;DHT22;38650;44.536;18.664;2024-02-23T03:41:39;13.50;49.00
52765;DHT22;38650;44.536;18.664;2024-02-23T03:44:04;13.60;48.50
52765;DHT22;38650;44.536;18.664;2024-02-23T03:46:30;13.70;48.50
52765;DHT22;38650;44.536;18.664;2024-02-23T03:48:56;13.70;48.50
52765;DHT22;38650;44.536;18.664;2024-02-23T03:51:23;13.80;47.80
52765;DHT22;38650;44.536;18.664;2024-02-23T03:53:49;13.80;47.90
52765;DHT22;38650;44.536;18.664;2024-02-23T03:56:15;13.80;47.60
52765;DHT22;38650;44.536;18.664;2024-02-23T03:58:41;13.90;48.00
52765;DHT22;38650;44.536;18.664;2024-02-23T04:01:06;13.90;47.30
52765;DHT22;38650;44.536;18.664;2024-02-23T04:03:32;14.00;47.30
52765;DHT22;38650;44.536;18.664;2024-02-23T04:05:58;14.00;47.30
52765;DHT22;38650;44.536;18.664;2024-02-23T04:08:23;14.10;47.60
52765;DHT22;38650;44.536;18.664;2024-02-23T04:10:49;14.00;47.30
52765;DHT22;38650;44.536;18.664;2024-02-23T04:13:15;14.10;47.60
52765;DHT22;38650;44.536;18.664;2024-02-23T04:15:41;14.10;47.50
52765;DHT22;38650;44.536;18.664;2024-02-23T04:18:07;14.10;47.60
52765;DHT22;38650;44.536;18.664;2024-02-23T04:20:32;14.10;48.20
52765;DHT22;38650;44.536;18.664;2024-02-23T04:22:58;14.10;47.90
52765;DHT22;38650;44.536;18.664;2024-02-23T04:25:24;14.10;47.90
52765;DHT22;38650;44.536;18.664;2024-02-23T04:27:50;14.00;47.90
52765;DHT22;38650;44.536;18.664;2024-02-23T04:30:15;14.00;48.20
52765;DHT22;38650;44.536;18.664;2024-02-23T04:32:41;14.00;48.10
52765;DHT22;38650;44.536;18.664;2024-02-23T04:35:08;14.00;48.40
52765;DHT22;38650;44.536;18.664;2024-02-23T04:37:34;14.00;48.70
52765;DHT22;38650;44.536;18.664;2024-02-23T04:39:59;14.00;48.80
52765;DHT22;38650;44.536;18.664;2024-02-23T04:42:25;14.00;48.80
52765;DHT22;38650;44.536;18.664;2024-02-23T04:44:51;14.10;47.90
52765;DHT22;38650;44.536;18.664;2024-02-23T04:47:19;14.20;48.00
52765;DHT22;38650;44.536;18.664;2024-02-23T04:49:45;14.20;47.80
52765;DHT22;38650;44.536;18.664;2024-02-23T04:52:11;14.20;48.40
52765;DHT22;38650;44.536;18.664;2024-02-23T04:54:36;14.20;48.50
52765;DHT22;38650;44.536;18.664;2024-02-23T04:57:02;14.20;48.10
52765;DHT22;38650;44.536;18.664;2024-02-23T04:59:28;14.20;48.80
52765;DHT22;38650;44.536;18.664;2024-02-23T05:01:55;14.00;47.60
52765;DHT22;38650;44.536;18.664;2024-02-23T05:04:21;14.00;48.10
52765;DHT22;38650;44.536;18.664;2024-02-23T05:06:46;14.10;47.70
52765;DHT22;38650;44.536;18.664;2024-02-23T05:09:13;14.10;47.30
52765;DHT22;38650;44.536;18.664;2024-02-23T05:11:39;14.10;47.20
52765;DHT22;38650;44.536;18.664;2024-02-23T05:14:04;14.20;47.10
52765;DHT22;38650;44.536;18.664;2024-02-23T05:16:31;14.10;47.50
52765;DHT22;38650;44.536;18.664;2024-02-23T05:18:57;14.10;47.50
52765;DHT22;38650;44.536;18.664;2024-02-23T05:21:22;14.10;47.10
52765;DHT22;38650;44.536;18.664;2024-02-23T05:23:48;14.20;46.90
52765;DHT22;38650;44.536;18.664;2024-02-23T05:26:14;14.30;46.60
52765;DHT22;38650;44.536;18.664;2024-02-23T05:28:39;14.30;46.70
52765;DHT22;38650;44.536;18.664;2024-02-23T05:31:05;14.20;46.10
52765;DHT22;38650;44.536;18.664;2024-02-23T05:33:31;14.30;46.10
52765;DHT22;38650;44.536;18.664;2024-02-23T05:35:56;14.30;46.50
52765;DHT22;38650;44.536;18.664;2024-02-23T05:38:22;14.30;46.50
52765;DHT22;38650;44.536;18.664;2024-02-23T05:40:47;14.30;47.00
52765;DHT22;38650;44.536;18.664;2024-02-23T05:43:14;14.20;46.40
52765;DHT22;38650;44.536;18.664;2024-02-23T05:45:39;14.30;46.30
52765;DHT22;38650;44.536;18.664;2024-02-23T05:48:05;14.30;46.20
52765;DHT22;38650;44.536;18.664;2024-02-23T05:50:32;14.40;46.00
52765;DHT22;38650;44.536;18.664;2024-02-23T05:52:58;14.40;46.00
52765;DHT22;38650;44.536;18.664;2024-02-23T05:55:24;14.30;48.70
52765;DHT22;38650;44.536;18.664;2024-02-23T05:57:49;14.20;47.30
52765;DHT22;38650;44.536;18.664;2024-02-23T06:00:17;14.20;48.90
52765;DHT22;38650;44.536;18.664;2024-02-23T06:02:47;14.20;49.70
52765;DHT22;38650;44.536;18.664;2024-02-23T06:05:13;14.00;49.60
52765;DHT22;38650;44.536;18.664;2024-02-23T06:07:38;14.00;48.00
52765;DHT22;38650;44.536;18.664;2024-02-23T06:10:05;14.00;48.90
52765;DHT22;38650;44.536;18.664;2024-02-23T06:12:31;14.00;48.90
52765;DHT22;38650;44.536;18.664;2024-02-23T06:14:57;14.10;47.50
52765;DHT22;38650;44.536;18.664;2024-02-23T06:17:24;14.10;48.60
52765;DHT22;38650;44.536;18.664;2024-02-23T06:19:53;14.10;47.00
52765;DHT22;38650;44.536;18.664;2024-02-23T06:22:20;14.20;44.60
52765;DHT22;38650;44.536;18.664;2024-02-23T06:24:50;14.30;44.50
52765;DHT22;38650;44.536;18.664;2024-02-23T06:27:17;14.40;44.40
52765;DHT22;38650;44.536;18.664;2024-02-23T06:29:43;14.50;44.00
52765;DHT22;38650;44.536;18.664;2024-02-23T06:32:09;14.50;43.40
52765;DHT22;38650;44.536;18.664;2024-02-23T06:34:34;14.60;42.80
52765;DHT22;38650;44.536;18.664;2024-02-23T06:37:01;14.60;42.30
52765;DHT22;38650;44.536;18.664;2024-02-23T06:39:27;14.80;42.20
52765;DHT22;38650;44.536;18.664;2024-02-23T06:41:52;14.80;41.60
52765;DHT22;38650;44.536;18.664;2024-02-23T06:44:18;14.80;42.30
52765;DHT22;38650;44.536;18.664;2024-02-23T06:46:44;14.80;42.00
52765;DHT22;38650;44.536;18.664;2024-02-23T06:49:10;14.80;42.00
52765;DHT22;38650;44.536;18.664;2024-02-23T06:51:35;14.90;41.70
52765;DHT22;38650;44.536;18.664;2024-02-23T06:54:01;14.90;41.20
52765;DHT22;38650;44.536;18.664;2024-02-23T06:56:34;15.00;41.40
52765;DHT22;38650;44.536;18.664;2024-02-23T06:59:01;15.00;41.00
52765;DHT22;38650;44.536;18.664;2024-02-23T07:01:27;15.00;41.80
52765;DHT22;38650;44.536;18.664;2024-02-23T07:03:53;15.00;40.30
52765;DHT22;38650;44.536;18.664;2024-02-23T07:06:25;15.00;40.60
52765;DHT22;38650;44.536;18.664;2024-02-23T07:08:56;14.90;40.30
52765;DHT22;38650;44.536;18.664;2024-02-23T07:11:22;15.00;40.50
52765;DHT22;38650;44.536;18.664;2024-02-23T07:13:48;15.10;39.50
52765;DHT22;38650;44.536;18.664;2024-02-23T07:16:14;15.20;38.80
52765;DHT22;38650;44.536;18.664;2024-02-23T07:18:40;15.20;39.10
52765;DHT22;38650;44.536;18.664;2024-02-23T07:21:06;15.20;39.00
52765;DHT22;38650;44.536;18.664;2024-02-23T07:23:32;15.30;38.70
52765;DHT22;38650;44.536;18.664;2024-02-23T07:25:58;15.40;38.40
52765;DHT22;38650;44.536;18.664;2024-02-23T07:28:23;15.40;38.80
52765;DHT22;38650;44.536;18.664;2024-02-23T07:30:49;15.40;38.40
52765;DHT22;38650;44.536;18.664;2024-02-23T07:33:15;15.40;38.80
52765;DHT22;38650;44.536;18.664;2024-02-23T07:35:41;15.40;38.50
52765;DHT22;38650;44.536;18.664;2024-02-23T07:38:06;15.40;38.30
52765;DHT22;38650;44.536;18.664;2024-02-23T07:40:32;15.40;38.90
52765;DHT22;38650;44.536;18.664;2024-02-23T07:42:58;15.50;38.70
52765;DHT22;38650;44.536;18.664;2024-02-23T07:45:23;15.60;38.70
52765;DHT22;38650;44.536;18.664;2024-02-23T07:47:49;15.60;38.30
52765;DHT22;38650;44.536;18.664;2024-02-23T07:50:15;15.70;38.20
52765;DHT22;38650;44.536;18.664;2024-02-23T07:52:41;15.70;38.60
52765;DHT22;38650;44.536;18.664;2024-02-23T07:55:07;15.70;38.90
52765;DHT22;38650;44.536;18.664;2024-02-23T07:57:33;15.70;38.70
52765;DHT22;38650;44.536;18.664;2024-02-23T08:00:00;15.60;38.40
52765;DHT22;38650;44.536;18.664;2024-02-23T08:02:26;15.70;38.60
52765;DHT22;38650;44.536;18.664;2024-02-23T08:04:52;15.70;38.70
52765;DHT22;38650;44.536;18.664;2024-02-23T08:07:18;15.80;38.90
52765;DHT22;38650;44.536;18.664;2024-02-23T08:09:43;15.90;38.90
52765;DHT22;38650;44.536;18.664;2024-02-23T08:12:09;15.90;39.00
52765;DHT22;38650;44.536;18.664;2024-02-23T08:14:36;16.00;39.00
52765;DHT22;38650;44.536;18.664;2024-02-23T08:17:02;15.90;39.50
52765;DHT22;38650;44.536;18.664;2024-02-23T08:19:28;16.00;39.60
52765;DHT22;38650;44.536;18.664;2024-02-23T08:21:53;16.10;39.50
52765;DHT22;38650;44.536;18.664;2024-02-23T08:24:19;16.10;39.70
52765;DHT22;38650;44.536;18.664;2024-02-23T08:26:45;16.10;39.50
52765;DHT22;38650;44.536;18.664;2024-02-23T08:29:10;16.20;40.70
52765;DHT22;38650;44.536;18.664;2024-02-23T08:31:36;16.20;40.40
52765;DHT22;38650;44.536;18.664;2024-02-23T08:34:02;16.30;41.10
52765;DHT22;38650;44.536;18.664;2024-02-23T08:36:28;16.30;41.70
52765;DHT22;38650;44.536;18.664;2024-02-23T08:38:54;16.30;41.80
52765;DHT22;38650;44.536;18.664;2024-02-23T08:41:20;16.30;41.40
52765;DHT22;38650;44.536;18.664;2024-02-23T08:43:46;16.40;41.20
52765;DHT22;38650;44.536;18.664;2024-02-23T08:46:12;16.40;41.10
52765;DHT22;38650;44.536;18.664;2024-02-23T08:48:41;16.50;40.80
52765;DHT22;38650;44.536;18.664;2024-02-23T08:51:07;16.50;41.20
52765;DHT22;38650;44.536;18.664;2024-02-23T08:53:32;16.50;40.50
52765;DHT22;38650;44.536;18.664;2024-02-23T08:55:58;16.60;39.60
52765;DHT22;38650;44.536;18.664;2024-02-23T08:58:24;16.60;39.70
52765;DHT22;38650;44.536;18.664;2024-02-23T09:00:49;16.70;39.60
52765;DHT22;38650;44.536;18.664;2024-02-23T09:03:15;16.80;39.00
52765;DHT22;38650;44.536;18.664;2024-02-23T09:05:41;16.90;38.70
52765;DHT22;38650;44.536;18.664;2024-02-23T09:08:06;17.00;38.70
52765;DHT22;38650;44.536;18.664;2024-02-23T09:10:32;16.90;38.40
52765;DHT22;38650;44.536;18.664;2024-02-23T09:12:58;16.90;38.80
52765;DHT22;38650;44.536;18.664;2024-02-23T09:15:23;16.80;38.40
52765;DHT22;38650;44.536;18.664;2024-02-23T09:17:49;16.80;39.00
52765;DHT22;38650;44.536;18.664;2024-02-23T09:20:15;16.70;38.90
52765;DHT22;38650;44.536;18.664;2024-02-23T09:22:41;16.70;39.70
52765;DHT22;38650;44.536;18.664;2024-02-23T09:25:07;16.60;39.40
52765;DHT22;38650;44.536;18.664;2024-02-23T09:27:33;16.60;39.80
52765;DHT22;38650;44.536;18.664;2024-02-23T09:30:02;16.60;39.50
52765;DHT22;38650;44.536;18.664;2024-02-23T09:32:29;16.60;39.90
52765;DHT22;38650;44.536;18.664;2024-02-23T09:34:55;16.60;39.50
52765;DHT22;38650;44.536;18.664;2024-02-23T09:37:20;16.80;39.40
52765;DHT22;38650;44.536;18.664;2024-02-23T09:39:46;16.90;39.40
52765;DHT22;38650;44.536;18.664;2024-02-23T09:42:12;16.90;39.50
52765;DHT22;38650;44.536;18.664;2024-02-23T09:44:37;16.90;38.90
52765;DHT22;38650;44.536;18.664;2024-02-23T09:47:03;17.00;38.80
52765;DHT22;38650;44.536;18.664;2024-02-23T09:49:40;17.00;38.90
52765;DHT22;38650;44.536;18.664;2024-02-23T09:52:10;17.00;39.00
52765;DHT22;38650;44.536;18.664;2024-02-23T09:54:39;17.00;39.40
52765;DHT22;38650;44.536;18.664;2024-02-23T09:57:08;17.00;40.20
52765;DHT22;38650;44.536;18.664;2024-02-23T09:59:34;17.00;40.40
52765;DHT22;38650;44.536;18.664;2024-02-23T10:02:07;17.10;41.50
52765;DHT22;38650;44.536;18.664;2024-02-23T10:04:37;17.30;40.30
52765;DHT22;38650;44.536;18.664;2024-02-23T10:07:08;17.60;41.60
52765;DHT22;38650;44.536;18.664;2024-02-23T10:09:34;17.60;39.90
52765;DHT22;38650;44.536;18.664;2024-02-23T10:12:04;17.70;39.90
52765;DHT22;38650;44.536;18.664;2024-02-23T10:14:33;17.70;40.50
52765;DHT22;38650;44.536;18.664;2024-02-23T10:16:58;17.50;40.20
52765;DHT22;38650;44.536;18.664;2024-02-23T10:19:25;17.60;39.80
52765;DHT22;38650;44.536;18.664;2024-02-23T10:21:54;17.60;39.90
52765;DHT22;38650;44.536;18.664;2024-02-23T10:24:26;17.50;38.70
52765;DHT22;38650;44.536;18.664;2024-02-23T10:27:00;17.60;38.80
52765;DHT22;38650;44.536;18.664;2024-02-23T10:29:34;17.60;39.20
52765;DHT22;38650;44.536;18.664;2024-02-23T10:32:01;17.60;38.80
52765;DHT22;38650;44.536;18.664;2024-02-23T10:34:27;17.70;38.30
52765;DHT22;38650;44.536;18.664;2024-02-23T10:36:56;17.60;38.50
52765;DHT22;38650;44.536;18.664;2024-02-23T10:39:24;17.60;39.70
52765;DHT22;38650;44.536;18.664;2024-02-23T10:41:59;17.50;40.10
52765;DHT22;38650;44.536;18.664;2024-02-23T10:44:28;17.40;41.10
52765;DHT22;38650;44.536;18.664;2024-02-23T10:46:55;17.30;41.10
52765;DHT22;38650;44.536;18.664;2024-02-23T10:49:23;17.20;45.60
52765;DHT22;38650;44.536;18.664;2024-02-23T10:51:52;17.00;45.60
52765;DHT22;38650;44.536;18.664;2024-02-23T10:54:22;16.70;45.10
52765;DHT22;38650;44.536;18.664;2024-02-23T10:56:49;16.40;46.10
52765;DHT22;38650;44.536;18.664;2024-02-23T10:59:19;16.20;48.00
52765;DHT22;38650;44.536;18.664;2024-02-23T11:01:48;16.10;49.00
52765;DHT22;38650;44.536;18.664;2024-02-23T11:04:19;16.10;49.60
52765;DHT22;38650;44.536;18.664;2024-02-23T11:06:53;16.10;51.10
52765;DHT22;38650;44.536;18.664;2024-02-23T11:09:23;16.10;57.00
52765;DHT22;38650;44.536;18.664;2024-02-23T11:11:54;16.00;60.70
52765;DHT22;38650;44.536;18.664;2024-02-23T11:14:36;15.80;74.20
52765;DHT22;38650;44.536;18.664;2024-02-23T11:17:02;15.50;84.90
52765;DHT22;38650;44.536;18.664;2024-02-23T11:19:39;15.20;92.10
52765;DHT22;38650;44.536;18.664;2024-02-23T11:22:09;14.80;96.50
52765;DHT22;38650;44.536;18.664;2024-02-23T11:24:34;14.50;99.90
52765;DHT22;38650;44.536;18.664;2024-02-23T11:27:01;14.10;99.90
52765;DHT22;38650;44.536;18.664;2024-02-23T11:29:33;13.70;99.90
52765;DHT22;38650;44.536;18.664;2024-02-23T11:32:00;13.60;99.90
52765;DHT22;38650;44.536;18.664;2024-02-23T11:34:29;13.60;99.90
52765;DHT22;38650;44.536;18.664;2024-02-23T11:36:55;13.50;99.90
52765;DHT22;38650;44.536;18.664;2024-02-23T11:39:24;13.60;99.90
52765;DHT22;38650;44.536;18.664;2024-02-23T11:41:50;13.70;99.90
52765;DHT22;38650;44.536;18.664;2024-02-23T11:44:19;13.60;99.90
52765;DHT22;38650;44.536;18.664;2024-02-23T11:46:50;13.40;99.90
52765;DHT22;38650;44.536;18.664;2024-02-23T11:49:16;13.40;99.90
52765;DHT22;38650;44.536;18.664;2024-02-23T11:51:42;13.50;99.90
52765;DHT22;38650;44.536;18.664;2024-02-23T11:54:08;13.70;99.90
52765;DHT22;38650;44.536;18.664;2024-02-23T11:56:34;13.90;99.40
52765;DHT22;38650;44.536;18.664;2024-02-23T11:59:00;14.20;99.70
52765;DHT22;38650;44.536;18.664;2024-02-23T12:01:29;14.30;99.90
52765;DHT22;38650;44.536;18.664;2024-02-23T12:03:56;14.40;98.50
52765;DHT22;38650;44.536;18.664;2024-02-23T12:06:21;14.30;96.60
52765;DHT22;38650;44.536;18.664;2024-02-23T12:08:47;14.20;98.80
52765;DHT22;38650;44.536;18.664;2024-02-23T12:11:14;14.20;96.40
52765;DHT22;38650;44.536;18.664;2024-02-23T12:13:40;14.30;96.50
52765;DHT22;38650;44.536;18.664;2024-02-23T12:16:07;14.40;97.30
52765;DHT22;38650;44.536;18.664;2024-02-23T12:18:33;14.40;96.20
52765;DHT22;38650;44.536;18.664;2024-02-23T12:21:05;14.60;94.50
52765;DHT22;38650;44.536;18.664;2024-02-23T12:23:41;14.80;90.80
52765;DHT22;38650;44.536;18.664;2024-02-23T12:26:08;15.00;85.00
52765;DHT22;38650;44.536;18.664;2024-02-23T12:28:34;15.20;85.90
52765;DHT22;38650;44.536;18.664;2024-02-23T12:31:03;15.40;74.90
52765;DHT22;38650;44.536;18.664;2024-02-23T12:33:34;15.50;90.30
52765;DHT22;38650;44.536;18.664;2024-02-23T12:36:01;15.50;79.30
52765;DHT22;38650;44.536;18.664;2024-02-23T12:38:27;15.60;84.00
52765;DHT22;38650;44.536;18.664;2024-02-23T12:40:53;15.70;81.80
52765;DHT22;38650;44.536;18.664;2024-02-23T12:43:19;15.80;77.70
52765;DHT22;38650;44.536;18.664;2024-02-23T12:45:50;15.90;69.30
52765;DHT22;38650;44.536;18.664;2024-02-23T12:48:17;15.90;67.40
52765;DHT22;38650;44.536;18.664;2024-02-23T12:50:43;15.80;72.70
52765;DHT22;38650;44.536;18.664;2024-02-23T12:53:36;15.80;76.60
52765;DHT22;38650;44.536;18.664;2024-02-23T12:56:10;15.70;80.60
52765;DHT22;38650;44.536;18.664;2024-02-23T12:58:39;15.80;80.90
52765;DHT22;38650;44.536;18.664;2024-02-23T13:01:05;15.70;73.50
52765;DHT22;38650;44.536;18.664;2024-02-23T13:03:33;15.50;78.20
52765;DHT22;38650;44.536;18.664;2024-02-23T13:05:59;15.50;73.30
52765;DHT22;38650;44.536;18.664;2024-02-23T13:08:26;15.50;56.00
52765;DHT22;38650;44.536;18.664;2024-02-23T13:10:52;15.50;62.80
52765;DHT22;38650;44.536;18.664;2024-02-23T13:13:20;15.50;56.00
52765;DHT22;38650;44.536;18.664;2024-02-23T13:15:46;15.50;52.60
52765;DHT22;38650;44.536;18.664;2024-02-23T13:18:12;15.60;57.70
52765;DHT22;38650;44.536;18.664;2024-02-23T13:20:38;15.60;52.20
52765;DHT22;38650;44.536;18.664;2024-02-23T13:23:05;15.70;57.10
52765;DHT22;38650;44.536;18.664;2024-02-23T13:25:35;15.70;53.10
52765;DHT22;38650;44.536;18.664;2024-02-23T13:28:02;15.80;51.90
52765;DHT22;38650;44.536;18.664;2024-02-23T13:30:28;15.80;48.30
52765;DHT22;38650;44.536;18.664;2024-02-23T13:32:54;15.80;56.70
52765;DHT22;38650;44.536;18.664;2024-02-23T13:35:20;15.80;49.10
52765;DHT22;38650;44.536;18.664;2024-02-23T13:37:46;15.80;47.30
52765;DHT22;38650;44.536;18.664;2024-02-23T13:40:11;15.90;48.60
52765;DHT22;38650;44.536;18.664;2024-02-23T13:42:40;16.00;49.10
52765;DHT22;38650;44.536;18.664;2024-02-23T13:45:07;15.90;41.90
52765;DHT22;38650;44.536;18.664;2024-02-23T13:47:33;16.00;42.70
52765;DHT22;38650;44.536;18.664;2024-02-23T13:49:59;16.00;44.50
52765;DHT22;38650;44.536;18.664;2024-02-23T13:52:25;16.10;45.20
52765;DHT22;38650;44.536;18.664;2024-02-23T13:54:51;16.10;45.30
52765;DHT22;38650;44.536;18.664;2024-02-23T13:57:17;16.10;40.70
52765;DHT22;38650;44.536;18.664;2024-02-23T13:59:42;16.00;40.60
52765;DHT22;38650;44.536;18.664;2024-02-23T14:02:09;16.00;41.40
52765;DHT22;38650;44.536;18.664;2024-02-23T14:04:34;16.10;41.20
52765;DHT22;38650;44.536;18.664;2024-02-23T14:07:01;16.10;40.20
52765;DHT22;38650;44.536;18.664;2024-02-23T14:09:26;16.20;42.20
52765;DHT22;38650;44.536;18.664;2024-02-23T14:11:52;16.30;40.70
52765;DHT22;38650;44.536;18.664;2024-02-23T14:14:19;16.30;40.80
52765;DHT22;38650;44.536;18.664;2024-02-23T14:16:45;16.20;38.80
52765;DHT22;38650;44.536;18.664;2024-02-23T14:19:11;16.20;40.10
52765;DHT22;38650;44.536;18.664;2024-02-23T14:21:37;16.30;39.00
52765;DHT22;38650;44.536;18.664;2024-02-23T14:24:03;16.30;38.10
52765;DHT22;38650;44.536;18.664;2024-02-23T14:26:29;16.30;40.00
52765;DHT22;38650;44.536;18.664;2024-02-23T14:28:55;16.30;40.90
52765;DHT22;38650;44.536;18.664;2024-02-23T14:31:21;16.30;43.80
52765;DHT22;38650;44.536;18.664;2024-02-23T14:33:46;16.30;44.80
52765;DHT22;38650;44.536;18.664;2024-02-23T14:36:16;16.30;46.10
52765;DHT22;38650;44.536;18.664;2024-02-23T14:38:42;16.10;50.40
52765;DHT22;38650;44.536;18.664;2024-02-23T14:41:08;15.80;52.30
52765;DHT22;38650;44.536;18.664;2024-02-23T14:43:35;15.60;51.60
52765;DHT22;38650;44.536;18.664;2024-02-23T14:46:01;15.50;49.00
52765;DHT22;38650;44.536;18.664;2024-02-23T14:48:27;15.50;47.30
52765;DHT22;38650;44.536;18.664;2024-02-23T14:50:52;15.60;50.50
52765;DHT22;38650;44.536;18.664;2024-02-23T14:53:18;15.50;49.80
52765;DHT22;38650;44.536;18.664;2024-02-23T14:55:44;15.40;54.90
52765;DHT22;38650;44.536;18.664;2024-02-23T14:58:09;15.30;49.10
52765;DHT22;38650;44.536;18.664;2024-02-23T15:00:35;15.30;43.10
52765;DHT22;38650;44.536;18.664;2024-02-23T15:03:03;15.50;44.60
52765;DHT22;38650;44.536;18.664;2024-02-23T15:05:28;15.40;51.80
52765;DHT22;38650;44.536;18.664;2024-02-23T15:07:55;15.20;49.60
52765;DHT22;38650;44.536;18.664;2024-02-23T15:10:20;15.20;42.60
52765;DHT22;38650;44.536;18.664;2024-02-23T15:12:46;15.40;43.50